Time;durP1;ratioP1;P1;durP2;ratioP2;P2;SDS_P1;SDS_P2;PMS_P1;PMS_P2;Temp;Humidity;BMP_temperature;BMP_pressure;BME280_temperature;BME280_humidity;BME280_pressure;Samples;Min_cycle;Max_cycle;Signal;HPM_P1;HPM_P2
2023/12/31 00:02:07;;;;;;;13.80;5.28;;;7.10;90.80;;;;;;5099866;27;20028;-47
2023/12/31 00:04:34;;;;;;;10.15;4.43;;;7.10;90.80;;;;;;5099264;28;20425;-46
2023/12/31 00:07:00;;;;;;;11.15;4.20;;;7.10;90.80;;;;;;5103198;27;20055;-49
2023/12/31 00:09:27;;;;;;;13.85;5.55;;;7.10;90.70;;;;;;5106468;27;20022;-47
2023/12/31 00:11:52;;;;;;;11.88;4.30;;;7.00;90.80;;;;;;5115539;27;20035;-47
2023/12/31 00:14:19;;;;;;;9.90;3.60;;;7.00;90.80;;;;;;5114446;27;20073;-47
2023/12/31 00:16:46;;;;;;;9.10;3.65;;;7.00;91.00;;;;;;5114473;27;20036;-48
2023/12/31 00:19:11;;;;;;;10.45;4.18;;;7.00;91.00;;;;;;5104027;27;20034;-49
2023/12/31 00:21:42;;;;;;;9.23;4.20;;;7.00;91.00;;;;;;5113915;27;20023;-47
2023/12/31 00:24:09;;;;;;;8.70;3.70;;;7.10;91.00;;;;;;5095030;28;20447;-47
2023/12/31 00:26:36;;;;;;;10.57;3.90;;;7.10;90.90;;;;;;5112670;28;20030;-48
2023/12/31 00:29:02;;;;;;;10.75;3.72;;;7.20;90.90;;;;;;5112382;28;20114;-47
2023/12/31 00:31:29;;;;;;;10.98;3.97;;;7.20;90.80;;;;;;5115988;27;20031;-47
2023/12/31 00:33:57;;;;;;;7.35;4.20;;;7.20;90.80;;;;;;5126530;27;20011;-47
2023/12/31 00:36:26;;;;;;;8.32;3.08;;;7.20;90.80;;;;;;5112628;28;20560;-48
2023/12/31 00:38:54;;;;;;;8.48;4.63;;;7.20;90.80;;;;;;5114830;27;20124;-50
2023/12/31 00:41:21;;;;;;;7.88;3.65;;;7.20;90.70;;;;;;5128127;27;20028;-47
2023/12/31 00:43:47;;;;;;;14.80;6.28;;;7.20;90.70;;;;;;5127995;27;20482;-50
2023/12/31 00:46:16;;;;;;;13.02;5.50;;;7.20;90.60;;;;;;5112068;27;20322;-47
2023/12/31 00:48:42;;;;;;;8.85;3.75;;;7.20;90.60;;;;;;5112654;27;20027;-50
2023/12/31 00:51:09;;;;;;;7.28;4.28;;;7.20;90.60;;;;;;5111569;28;20024;-49
2023/12/31 00:53:39;;;;;;;6.70;3.00;;;7.20;90.50;;;;;;5112145;28;20024;-49
2023/12/31 00:56:09;;;;;;;11.48;3.95;;;7.20;90.60;;;;;;5112279;27;20023;-50
2023/12/31 00:58:37;;;;;;;;;;;7.20;90.50;;;;;;5112683;28;20019;-48
2023/12/31 01:01:04;;;;;;;9.90;3.75;;;7.20;90.40;;;;;;5112263;28;19951;-47
2023/12/31 01:03:30;;;;;;;12.65;4.07;;;7.20;90.70;;;;;;5115565;28;20027;-47
2023/12/31 01:06:07;;;;;;;12.63;4.05;;;7.20;90.70;;;;;;5111762;28;20027;-47
2023/12/31 01:08:34;;;;;;;13.70;4.00;;;7.20;90.60;;;;;;5111782;28;20043;-48
2023/12/31 01:11:03;;;;;;;6.75;2.88;;;7.20;90.60;;;;;;5111858;28;20054;-48
2023/12/31 01:13:30;;;;;;;8.02;4.15;;;7.20;90.60;;;;;;5111809;28;20027;-48
2023/12/31 01:15:57;;;;;;;14.05;3.60;;;7.10;90.70;;;;;;5111876;28;20024;-47
2023/12/31 01:18:25;;;;;;;8.02;3.35;;;7.10;90.80;;;;;;5120016;28;20038;-48
2023/12/31 01:20:53;;;;;;;9.65;3.45;;;7.10;90.80;;;;;;5111715;28;20121;-47
2023/12/31 01:23:19;;;;;;;10.35;3.38;;;7.10;90.70;;;;;;5111751;28;20020;-48
2023/12/31 01:25:46;;;;;;;11.02;3.75;;;7.00;90.70;;;;;;5111682;28;20061;-48
2023/12/31 01:28:13;;;;;;;6.85;3.22;;;7.00;90.70;;;;;;5111465;28;20031;-50
2023/12/31 01:30:40;;;;;;;6.97;3.38;;;7.00;90.60;;;;;;5111425;28;20030;-49
2023/12/31 01:33:07;;;;;;;5.82;2.78;;;7.00;90.80;;;;;;5120794;28;20085;-47
2023/12/31 01:35:33;;;;;;;6.35;3.00;;;7.00;90.80;;;;;;5111815;28;20039;-48
2023/12/31 01:38:00;;;;;;;9.32;2.97;;;6.90;90.80;;;;;;5131995;27;20069;-47
2023/12/31 01:40:27;;;;;;;6.10;2.75;;;7.00;90.80;;;;;;5111120;28;20018;-48
2023/12/31 01:42:54;;;;;;;11.63;3.83;;;7.00;90.90;;;;;;5111464;28;20100;-47
2023/12/31 01:45:21;;;;;;;7.28;3.58;;;6.90;91.00;;;;;;5111311;28;20089;-47
2023/12/31 01:47:48;;;;;;;9.10;3.20;;;7.00;91.20;;;;;;5116147;28;20095;-48
2023/12/31 01:50:16;;;;;;;8.38;3.38;;;7.10;91.10;;;;;;5131781;28;20016;-47
2023/12/31 01:52:44;;;;;;;7.03;3.40;;;7.10;91.00;;;;;;5131815;28;20019;-47
2023/12/31 01:55:11;;;;;;;6.88;3.28;;;7.20;90.90;;;;;;5128164;28;20089;-47
2023/12/31 01:57:40;;;;;;;8.15;3.30;;;7.20;90.80;;;;;;5127787;28;20455;-47
2023/12/31 02:00:08;;;;;;;7.07;2.80;;;7.20;90.80;;;;;;5111714;28;20032;-47
2023/12/31 02:02:44;;;;;;;7.32;2.90;;;7.30;90.60;;;;;;5114932;28;20176;-50
2023/12/31 02:05:13;;;;;;;7.40;2.55;;;7.30;90.60;;;;;;5112106;28;20032;-48
2023/12/31 02:07:38;;;;;;;7.93;2.67;;;7.30;90.50;;;;;;5111704;28;20058;-49
2023/12/31 02:10:04;;;;;;;8.75;3.65;;;7.30;90.40;;;;;;5112082;28;20024;-47
2023/12/31 02:12:30;;;;;;;6.95;2.67;;;7.20;90.40;;;;;;5112032;28;20102;-49
2023/12/31 02:14:56;;;;;;;7.18;2.95;;;7.20;90.30;;;;;;5112975;28;20102;-47
2023/12/31 02:17:23;;;;;;;9.57;4.53;;;7.20;90.40;;;;;;5117821;27;20351;-48
2023/12/31 02:19:50;;;;;;;5.00;3.30;;;7.20;90.50;;;;;;5133061;27;20027;-49
2023/12/31 02:22:16;;;;;;;9.82;2.58;;;7.20;90.60;;;;;;5118084;27;20624;-48
2023/12/31 02:24:50;;;;;;;4.80;2.67;;;7.10;90.60;;;;;;5134912;27;20080;-50
2023/12/31 02:27:17;;;;;;;6.47;2.78;;;7.10;90.70;;;;;;5136002;27;20027;-49
2023/12/31 02:29:44;;;;;;;5.18;2.45;;;7.10;90.80;;;;;;5136055;27;20016;-50
2023/12/31 02:32:10;;;;;;;4.88;2.28;;;7.20;90.70;;;;;;5104354;28;20089;-51
2023/12/31 02:34:37;;;;;;;7.80;2.40;;;7.20;90.70;;;;;;5122297;27;20038;-47
2023/12/31 02:37:04;;;;;;;7.38;2.78;;;7.20;90.60;;;;;;5115511;27;20059;-49
2023/12/31 02:39:30;;;;;;;11.73;4.85;;;7.20;90.50;;;;;;5149288;27;20404;-47
2023/12/31 02:41:57;;;;;;;8.90;2.95;;;7.20;90.60;;;;;;5135765;27;20095;-47
2023/12/31 02:44:25;;;;;;;5.43;2.72;;;7.20;90.70;;;;;;5115193;28;20115;-50
2023/12/31 02:46:53;;;;;;;4.95;2.60;;;7.30;90.60;;;;;;5115180;28;20049;-47
2023/12/31 02:49:20;;;;;;;5.88;2.53;;;7.30;90.70;;;;;;5120892;27;20058;-47
2023/12/31 02:51:47;;;;;;;7.28;2.28;;;7.30;90.70;;;;;;5115091;27;20325;-53
2023/12/31 02:54:14;;;;;;;5.20;2.30;;;7.30;90.70;;;;;;5096986;28;20433;-49
2023/12/31 02:56:41;;;;;;;14.30;3.20;;;7.30;90.60;;;;;;5114892;28;20034;-49
2023/12/31 02:59:09;;;;;;;5.03;2.13;;;7.30;90.60;;;;;;5114982;28;20030;-51
2023/12/31 03:01:37;;;;;;;5.25;2.45;;;7.30;90.60;;;;;;5121405;27;20046;-49
2023/12/31 03:04:03;;;;;;;6.05;2.45;;;7.30;90.70;;;;;;5128136;27;20037;-47
2023/12/31 03:06:32;;;;;;;6.85;2.60;;;7.30;90.70;;;;;;5114209;28;20035;-49
2023/12/31 03:09:01;;;;;;;5.63;2.42;;;7.30;90.70;;;;;;5092211;28;20039;-47
2023/12/31 03:11:28;;;;;;;6.22;2.40;;;7.30;90.70;;;;;;5094128;28;20487;-50
2023/12/31 03:13:54;;;;;;;6.03;2.45;;;7.30;90.80;;;;;;5094227;28;20032;-51
2023/12/31 03:16:24;;;;;;;6.50;2.70;;;7.30;90.90;;;;;;5080454;28;20081;-47
2023/12/31 03:18:54;;;;;;;;;;;7.30;91.00;;;;;;5078226;28;20390;-47
2023/12/31 03:21:20;;;;;;;5.82;2.35;;;7.40;90.80;;;;;;5089454;28;19919;-48
2023/12/31 03:23:50;;;;;;;4.15;2.17;;;7.40;90.70;;;;;;5074042;28;20036;-48
2023/12/31 03:26:17;;;;;;;5.38;2.08;;;7.40;90.70;;;;;;5085950;28;20210;-50
2023/12/31 03:28:47;;;;;;;5.78;2.40;;;7.40;90.70;;;;;;5073807;28;20020;-48
2023/12/31 03:31:13;;;;;;;8.60;1.98;;;7.40;90.70;;;;;;5073586;28;20028;-50
2023/12/31 03:33:40;;;;;;;9.05;2.72;;;7.40;90.70;;;;;;5076060;28;20030;-50
2023/12/31 03:36:08;;;;;;;4.97;2.25;;;7.40;90.70;;;;;;5076979;28;20106;-47
2023/12/31 03:38:35;;;;;;;5.13;1.70;;;7.40;90.70;;;;;;5082370;28;20030;-50
2023/12/31 03:41:02;;;;;;;5.57;1.65;;;7.40;90.60;;;;;;5073548;28;20033;-52
2023/12/31 03:43:28;;;;;;;5.53;1.70;;;7.40;90.60;;;;;;5073325;28;20058;-50
2023/12/31 03:45:54;;;;;;;4.45;2.03;;;7.40;90.70;;;;;;5073235;28;20037;-49
2023/12/31 03:48:21;;;;;;;4.70;1.80;;;7.40;90.80;;;;;;5073931;28;20032;-48
2023/12/31 03:50:47;;;;;;;5.35;2.03;;;7.40;91.00;;;;;;5078278;28;20535;-48
2023/12/31 03:53:15;;;;;;;3.22;1.60;;;7.40;91.00;;;;;;5088888;28;20050;-47
2023/12/31 03:55:42;;;;;;;5.75;2.13;;;7.40;91.10;;;;;;5073280;28;20024;-53
2023/12/31 03:58:13;;;;;;;4.22;1.70;;;7.40;91.00;;;;;;5073324;28;20167;-47
2023/12/31 04:00:40;;;;;;;4.90;2.10;;;7.40;90.90;;;;;;5073028;28;20047;-50
2023/12/31 04:03:07;;;;;;;4.40;1.90;;;7.30;90.90;;;;;;5085878;28;20035;-49
2023/12/31 04:05:33;;;;;;;5.82;2.10;;;7.30;91.00;;;;;;5079459;28;20032;-47
2023/12/31 04:08:00;;;;;;;7.25;2.15;;;7.30;91.20;;;;;;5097722;28;20100;-48
2023/12/31 04:10:27;;;;;;;4.40;1.83;;;7.30;91.20;;;;;;5113385;28;20042;-50
2023/12/31 04:12:53;;;;;;;7.57;2.33;;;7.20;91.10;;;;;;5112992;27;20103;-49
2023/12/31 04:15:21;;;;;;;4.38;2.58;;;7.20;91.20;;;;;;5113039;28;20030;-48
2023/12/31 04:17:48;;;;;;;6.70;2.40;;;7.20;91.30;;;;;;5113151;28;20437;-47
2023/12/31 04:20:14;;;;;;;6.75;3.25;;;7.20;91.40;;;;;;5100508;28;20537;-47
2023/12/31 04:22:43;;;;;;;4.90;2.28;;;7.20;91.40;;;;;;5127787;27;20046;-49
2023/12/31 04:25:10;;;;;;;6.55;1.70;;;7.20;91.50;;;;;;5130983;27;20035;-47
2023/12/31 04:27:40;;;;;;;4.90;1.88;;;7.20;91.60;;;;;;5133754;27;20027;-48
2023/12/31 04:30:07;;;;;;;;;;;7.10;91.60;;;;;;5126278;27;20332;-49
2023/12/31 04:32:33;;;;;;;3.13;1.65;;;7.10;91.70;;;;;;5129318;27;19957;-47
2023/12/31 04:35:02;;;;;;;2.90;1.55;;;7.10;91.70;;;;;;5097990;27;20501;-48
2023/12/31 04:37:33;;;;;;;3.35;1.75;;;7.10;91.80;;;;;;5113550;27;20104;-47
2023/12/31 04:40:00;;;;;;;;;;;7.10;91.70;;;;;;5115867;27;20114;-49
2023/12/31 04:42:27;;;;;;;3.42;1.63;;;7.20;91.70;;;;;;5113200;28;19918;-53
2023/12/31 04:44:54;;;;;;;6.20;1.73;;;7.20;91.60;;;;;;5113060;28;20023;-48
2023/12/31 04:47:20;;;;;;;4.35;1.70;;;7.20;91.60;;;;;;5112962;28;20059;-47
2023/12/31 04:49:47;;;;;;;4.35;1.90;;;7.10;91.70;;;;;;5115524;27;20045;-49
2023/12/31 04:52:14;;;;;;;7.50;1.88;;;7.10;91.60;;;;;;5115323;27;20023;-47
2023/12/31 04:54:41;;;;;;;5.65;2.03;;;7.10;91.70;;;;;;5113150;28;20096;-49
2023/12/31 04:57:08;;;;;;;5.68;1.88;;;7.20;91.80;;;;;;5112955;28;20118;-51
2023/12/31 04:59:37;;;;;;;7.95;1.92;;;7.20;91.70;;;;;;5117776;28;20019;-50
2023/12/31 05:02:04;;;;;;;4.65;2.08;;;7.20;91.60;;;;;;5133356;27;20547;-48
2023/12/31 05:04:31;;;;;;;3.65;1.58;;;7.30;91.50;;;;;;5129921;27;20035;-51
2023/12/31 05:06:58;;;;;;;5.45;1.77;;;7.30;91.40;;;;;;5095786;28;20059;-52
2023/12/31 05:09:26;;;;;;;3.72;1.70;;;7.30;91.50;;;;;;5112766;28;20044;-48
2023/12/31 05:11:52;;;;;;;3.78;2.03;;;7.30;91.30;;;;;;5112515;28;20020;-49
2023/12/31 05:14:19;;;;;;;5.40;1.70;;;7.30;91.20;;;;;;5132785;28;20168;-49
2023/12/31 05:16:49;;;;;;;7.78;2.50;;;7.20;91.20;;;;;;5129040;28;20393;-48
2023/12/31 05:19:16;;;;;;;3.28;1.63;;;7.20;91.30;;;;;;5113568;28;20039;-47
2023/12/31 05:21:42;;;;;;;6.50;2.00;;;7.20;91.20;;;;;;5130425;28;20046;-48
2023/12/31 05:24:09;;;;;;;5.28;1.83;;;7.10;91.20;;;;;;5115066;28;20027;-50
2023/12/31 05:26:36;;;;;;;3.90;1.60;;;7.10;91.30;;;;;;5120335;28;20054;-48
2023/12/31 05:29:03;;;;;;;6.82;2.00;;;7.10;91.30;;;;;;5112502;28;20066;-48
2023/12/31 05:31:30;;;;;;;4.13;1.90;;;7.10;91.20;;;;;;5112223;28;20031;-50
2023/12/31 05:33:56;;;;;;;3.95;1.60;;;7.10;91.10;;;;;;5112686;28;20043;-51
2023/12/31 05:36:22;;;;;;;3.97;1.58;;;7.10;91.20;;;;;;5116206;28;20028;-49
2023/12/31 05:38:49;;;;;;;4.38;1.65;;;7.10;91.00;;;;;;5124256;28;20034;-53
2023/12/31 05:41:16;;;;;;;3.08;1.50;;;7.20;91.00;;;;;;5122107;28;20040;-48
2023/12/31 05:43:45;;;;;;;5.65;1.85;;;7.20;90.90;;;;;;5112382;28;20024;-47
2023/12/31 05:46:12;;;;;;;3.75;1.95;;;7.20;90.90;;;;;;5111556;28;20031;-49
2023/12/31 05:48:41;;;;;;;3.42;1.60;;;7.10;90.90;;;;;;5129203;27;20122;-49
2023/12/31 05:51:07;;;;;;;5.28;1.73;;;7.10;90.90;;;;;;5123493;27;20038;-48
2023/12/31 05:53:34;;;;;;;4.45;1.75;;;7.10;90.70;;;;;;5115951;28;20461;-50
2023/12/31 05:56:00;;;;;;;5.57;2.00;;;7.10;90.60;;;;;;5115948;28;20123;-49
2023/12/31 05:58:29;;;;;;;4.05;1.45;;;7.00;90.70;;;;;;5116078;28;20026;-50
2023/12/31 06:00:58;;;;;;;7.22;2.17;;;7.00;90.60;;;;;;5126837;27;20031;-49
2023/12/31 06:03:25;;;;;;;5.50;2.10;;;7.00;90.50;;;;;;5136119;27;20024;-48
2023/12/31 06:05:52;;;;;;;7.13;2.20;;;7.00;90.60;;;;;;5115306;27;20020;-51
2023/12/31 06:08:19;;;;;;;3.40;1.85;;;7.00;90.50;;;;;;5135809;27;20039;-52
2023/12/31 06:10:46;;;;;;;6.32;2.08;;;6.90;90.70;;;;;;5116791;27;20027;-47
2023/12/31 06:13:15;;;;;;;4.63;1.90;;;6.90;90.60;;;;;;5117630;27;20084;-50
2023/12/31 06:15:41;;;;;;;4.88;2.15;;;6.90;90.80;;;;;;5135978;27;20333;-47
2023/12/31 06:18:09;;;;;;;8.07;2.75;;;6.90;90.70;;;;;;5135724;27;20027;-48
2023/12/31 06:20:39;;;;;;;6.20;2.60;;;6.90;90.60;;;;;;5131036;27;20027;-47
2023/12/31 06:23:06;;;;;;;6.75;2.00;;;6.90;90.60;;;;;;5133444;27;20032;-47
2023/12/31 06:25:33;;;;;;;5.28;1.70;;;6.90;90.70;;;;;;5134502;27;20050;-51
2023/12/31 06:27:59;;;;;;;5.18;1.98;;;6.90;90.80;;;;;;5136091;27;20064;-48
2023/12/31 06:30:26;;;;;;;6.07;2.20;;;6.90;90.70;;;;;;5134567;27;20019;-50
2023/12/31 06:32:53;;;;;;;4.78;2.08;;;6.90;90.60;;;;;;5135410;27;20023;-52
2023/12/31 06:35:20;;;;;;;4.90;1.90;;;6.80;90.80;;;;;;5130398;27;20023;-47
2023/12/31 06:37:49;;;;;;;5.40;2.10;;;6.80;90.80;;;;;;5138712;27;20020;-47
2023/12/31 06:40:16;;;;;;;3.47;2.10;;;6.80;90.70;;;;;;5138312;27;20062;-50
2023/12/31 06:42:43;;;;;;;5.18;1.90;;;6.80;90.80;;;;;;5134010;27;20027;-50
2023/12/31 06:45:09;;;;;;;4.45;2.10;;;6.80;90.80;;;;;;5135510;27;20344;-47
2023/12/31 06:47:36;;;;;;;5.45;2.45;;;6.80;90.80;;;;;;5135206;27;20072;-52
2023/12/31 06:50:02;;;;;;;5.68;2.33;;;6.80;90.70;;;;;;5132911;27;20030;-49
2023/12/31 06:52:28;;;;;;;5.35;2.00;;;6.80;90.70;;;;;;5132500;27;20015;-51
2023/12/31 06:54:55;;;;;;;4.82;2.25;;;6.80;90.80;;;;;;5116313;27;20348;-50
2023/12/31 06:57:22;;;;;;;4.00;2.05;;;6.80;90.90;;;;;;5134345;27;20020;-47
2023/12/31 06:59:49;;;;;;;4.57;2.25;;;6.80;90.90;;;;;;5135368;27;20042;-48
2023/12/31 07:02:16;;;;;;;5.40;2.25;;;6.90;91.00;;;;;;5133614;27;20096;-49
2023/12/31 07:04:46;;;;;;;5.20;2.58;;;6.90;90.90;;;;;;5096873;28;20449;-47
2023/12/31 07:07:12;;;;;;;8.18;2.78;;;6.90;90.80;;;;;;5122175;27;20065;-47
2023/12/31 07:09:42;;;;;;;6.25;2.90;;;6.90;90.80;;;;;;5116589;27;20080;-49
2023/12/31 07:12:09;;;;;;;5.30;2.97;;;7.00;90.70;;;;;;5132150;27;20076;-48
2023/12/31 07:14:36;;;;;;;8.43;2.60;;;6.90;90.40;;;;;;5116668;27;20019;-49
2023/12/31 07:17:03;;;;;;;6.57;2.50;;;6.90;90.50;;;;;;5131650;27;20351;-49
2023/12/31 07:19:30;;;;;;;6.68;2.20;;;6.90;90.60;;;;;;5132694;27;20019;-47
2023/12/31 07:21:56;;;;;;;3.85;2.13;;;6.90;90.50;;;;;;5132472;27;20068;-52
2023/12/31 07:24:23;;;;;;;5.45;2.92;;;6.90;90.50;;;;;;5134692;27;20023;-48
2023/12/31 07:26:50;;;;;;;5.43;2.33;;;6.90;90.50;;;;;;5131537;27;20023;-48
2023/12/31 07:29:15;;;;;;;7.35;3.45;;;6.90;90.50;;;;;;5134855;27;20031;-51
2023/12/31 07:31:42;;;;;;;5.90;2.78;;;6.90;90.60;;;;;;5134924;27;20031;-49
2023/12/31 07:34:09;;;;;;;6.22;2.55;;;6.90;90.60;;;;;;5135039;27;20019;-47
2023/12/31 07:36:37;;;;;;;3.42;1.90;;;6.90;90.60;;;;;;5128435;27;20023;-47
2023/12/31 07:39:04;;;;;;;5.28;2.20;;;6.90;90.60;;;;;;5122383;27;20020;-52
2023/12/31 07:41:34;;;;;;;3.75;2.35;;;7.00;90.50;;;;;;5125230;27;20035;-48
2023/12/31 07:44:03;;;;;;;4.97;2.70;;;7.00;90.50;;;;;;5130632;27;20360;-49
2023/12/31 07:46:29;;;;;;;4.80;2.40;;;7.00;90.50;;;;;;5134354;27;20031;-49
2023/12/31 07:48:56;;;;;;;9.13;2.50;;;7.10;90.30;;;;;;5131879;27;20536;-49
2023/12/31 07:51:22;;;;;;;5.20;2.55;;;7.10;90.20;;;;;;5129645;27;20071;-49
2023/12/31 07:53:51;;;;;;;6.35;2.50;;;7.10;90.20;;;;;;5138431;27;20110;-49
2023/12/31 07:56:17;;;;;;;;;;;7.10;90.20;;;;;;5137415;27;20023;-49
2023/12/31 07:58:43;;;;;;;4.50;2.78;;;7.10;90.10;;;;;;5143865;27;20447;-50
2023/12/31 08:01:10;;;;;;;6.55;2.75;;;7.10;90.20;;;;;;5113713;27;20027;-49
2023/12/31 08:03:37;;;;;;;3.88;2.20;;;7.20;90.10;;;;;;5130087;27;20417;-51
2023/12/31 08:06:03;;;;;;;5.82;2.85;;;7.20;90.00;;;;;;5130208;27;20028;-49
2023/12/31 08:08:30;;;;;;;8.63;2.63;;;7.30;90.00;;;;;;5125773;27;20488;-51
2023/12/31 08:10:59;;;;;;;6.68;2.80;;;7.40;89.80;;;;;;5131322;27;20061;-50
2023/12/31 08:13:26;;;;;;;3.97;2.38;;;7.40;89.70;;;;;;5132681;27;20019;-47
2023/12/31 08:15:53;;;;;;;4.68;2.50;;;7.40;89.40;;;;;;5133180;27;20027;-52
2023/12/31 08:18:20;;;;;;;4.10;2.60;;;7.40;89.40;;;;;;5124311;27;20041;-51
2023/12/31 08:20:47;;;;;;;5.35;3.03;;;7.30;89.50;;;;;;5130854;27;20038;-51
2023/12/31 08:23:14;;;;;;;4.90;2.38;;;7.30;89.40;;;;;;5125737;27;20027;-49
2023/12/31 08:25:43;;;;;;;5.93;3.15;;;7.40;89.50;;;;;;5112731;28;20062;-48
2023/12/31 08:28:12;;;;;;;4.55;2.70;;;7.40;89.50;;;;;;5112656;27;20036;-52
2023/12/31 08:30:39;;;;;;;8.20;3.53;;;7.50;89.30;;;;;;5113916;27;20408;-49
2023/12/31 08:33:06;;;;;;;5.80;3.30;;;7.50;89.20;;;;;;5096722;28;20026;-52
2023/12/31 08:35:32;;;;;;;8.23;3.88;;;7.40;89.20;;;;;;5120929;27;20038;-47
2023/12/31 08:37:59;;;;;;;4.72;2.92;;;7.40;89.30;;;;;;5122478;27;20058;-48
2023/12/31 08:40:28;;;;;;;5.25;2.78;;;7.40;89.20;;;;;;5130599;27;20035;-50
2023/12/31 08:42:55;;;;;;;7.00;2.85;;;7.50;89.20;;;;;;5115853;27;20059;-51
2023/12/31 08:45:22;;;;;;;5.70;2.83;;;7.50;89.00;;;;;;5123777;27;20034;-53
2023/12/31 08:47:49;;;;;;;4.30;2.53;;;7.50;89.20;;;;;;5113115;27;20059;-50
2023/12/31 08:50:16;;;;;;;10.77;3.78;;;7.60;89.10;;;;;;5114405;27;20024;-50
2023/12/31 08:52:45;;;;;;;5.75;3.08;;;7.60;89.00;;;;;;5114124;27;20028;-49
2023/12/31 08:55:12;;;;;;;5.25;2.75;;;7.60;89.00;;;;;;5125761;27;20092;-52
2023/12/31 08:57:49;;;;;;;6.30;3.40;;;7.60;88.70;;;;;;5129825;27;20035;-49
2023/12/31 09:00:17;;;;;;;6.20;3.15;;;7.70;88.70;;;;;;5107873;27;20045;-49
2023/12/31 09:02:46;;;;;;;4.82;3.20;;;7.70;88.70;;;;;;5130251;27;20024;-52
2023/12/31 09:05:14;;;;;;;5.93;2.88;;;7.60;88.70;;;;;;5134192;27;20014;-53
2023/12/31 09:07:42;;;;;;;5.05;3.00;;;7.70;88.80;;;;;;5136037;27;20051;-52
2023/12/31 09:10:08;;;;;;;5.97;2.65;;;7.70;88.60;;;;;;5132068;27;20058;-47
2023/12/31 09:12:34;;;;;;;6.85;2.45;;;7.70;88.50;;;;;;5113451;27;20043;-49
2023/12/31 09:15:01;;;;;;;5.60;3.25;;;7.80;88.50;;;;;;5135481;27;20054;-49
2023/12/31 09:17:28;;;;;;;4.78;3.05;;;7.80;88.50;;;;;;5131225;27;20027;-48
2023/12/31 09:19:56;;;;;;;5.20;2.83;;;7.80;88.40;;;;;;5122840;28;20020;-48
2023/12/31 09:22:26;;;;;;;4.53;2.90;;;7.80;88.40;;;;;;5122333;27;20110;-48
2023/12/31 09:24:53;;;;;;;4.88;2.65;;;7.80;88.50;;;;;;5119549;27;20491;-52
2023/12/31 09:27:20;;;;;;;5.35;3.30;;;7.80;88.60;;;;;;5119090;27;20106;-54
2023/12/31 09:29:51;;;;;;;5.53;3.47;;;7.90;88.30;;;;;;5116171;27;20324;-49
2023/12/31 09:32:18;;;;;;;5.18;2.97;;;7.80;88.40;;;;;;5120371;27;20019;-52
2023/12/31 09:34:44;;;;;;;8.45;3.65;;;7.80;88.50;;;;;;5099060;28;20589;-48
2023/12/31 09:37:16;;;;;;;3.95;2.42;;;7.80;88.40;;;;;;5120838;27;20020;-48
2023/12/31 09:39:42;;;;;;;5.43;3.42;;;7.80;88.50;;;;;;5128556;27;20042;-52
2023/12/31 09:42:51;;;;;;;5.53;2.40;;;7.90;88.40;;;;;;5116322;27;20028;-53
2023/12/31 09:45:23;;;;;;;6.55;3.95;;;7.90;88.40;;;;;;5116088;28;20484;-51
2023/12/31 09:47:51;;;;;;;5.57;2.80;;;7.90;88.30;;;;;;5115347;27;20433;-50
2023/12/31 09:50:22;;;;;;;7.22;3.00;;;7.90;88.20;;;;;;5146995;27;20439;-52
2023/12/31 09:52:50;;;;;;;4.38;2.53;;;7.90;88.30;;;;;;5123717;27;20035;-51
2023/12/31 09:55:18;;;;;;;4.85;2.70;;;7.90;88.40;;;;;;5119438;27;20109;-54
2023/12/31 09:57:47;;;;;;;4.60;2.63;;;7.90;88.40;;;;;;5119064;27;20502;-52
2023/12/31 10:00:14;;;;;;;4.20;2.90;;;7.90;88.30;;;;;;5122226;27;20023;-49
2023/12/31 10:02:43;;;;;;;5.72;2.80;;;7.90;88.40;;;;;;5127791;27;20035;-47
2023/12/31 10:05:13;;;;;;;6.15;2.80;;;7.90;88.30;;;;;;5116531;27;20062;-47
2023/12/31 10:07:40;;;;;;;3.97;2.45;;;7.90;88.20;;;;;;5122457;27;20055;-49
2023/12/31 10:10:09;;;;;;;4.55;2.92;;;7.90;88.10;;;;;;5125085;27;20027;-50
2023/12/31 10:12:40;;;;;;;7.63;3.08;;;8.00;87.90;;;;;;5124178;27;20341;-50
2023/12/31 10:15:08;;;;;;;6.05;2.70;;;8.10;88.00;;;;;;5125166;27;20038;-49
2023/12/31 10:17:37;;;;;;;5.45;2.70;;;8.10;87.90;;;;;;5107407;27;20042;-50
2023/12/31 10:20:08;;;;;;;6.18;2.30;;;8.20;87.80;;;;;;5125043;27;20076;-50
2023/12/31 10:22:36;;;;;;;4.32;2.58;;;8.20;87.70;;;;;;5122449;27;20031;-50
2023/12/31 10:25:14;;;;;;;4.95;2.75;;;8.30;87.40;;;;;;5123156;27;20066;-52
2023/12/31 10:27:47;;;;;;;5.70;2.40;;;8.30;87.30;;;;;;5121634;27;20043;-48
2023/12/31 10:30:18;;;;;;;5.13;2.65;;;8.40;87.10;;;;;;5133855;27;20027;-52
2023/12/31 10:32:48;;;;;;;5.35;2.35;;;8.40;87.00;;;;;;5126385;27;20373;-51
2023/12/31 10:35:22;;;;;;;4.78;2.67;;;8.40;87.30;;;;;;5100171;28;20028;-51
2023/12/31 10:38:03;;;;;;;5.68;2.47;;;8.50;87.00;;;;;;5106712;27;20031;-52
2023/12/31 10:40:29;;;;;;;6.00;2.88;;;8.60;86.90;;;;;;5122636;27;20050;-50
2023/12/31 10:42:59;;;;;;;3.95;2.20;;;8.60;86.70;;;;;;5117646;27;20102;-54
2023/12/31 10:45:27;;;;;;;3.95;2.05;;;8.70;86.40;;;;;;5124814;27;20087;-47
2023/12/31 10:48:04;;;;;;;5.30;2.35;;;8.80;86.30;;;;;;5122088;27;20034;-51
2023/12/31 10:50:32;;;;;;;4.40;2.22;;;8.90;86.30;;;;;;5120490;27;20582;-49
2023/12/31 10:53:02;;;;;;;2.90;1.85;;;8.90;85.70;;;;;;5122077;27;20042;-50
2023/12/31 10:55:32;;;;;;;3.83;2.25;;;9.00;85.30;;;;;;5104685;27;20023;-49
2023/12/31 10:57:58;;;;;;;5.53;2.35;;;9.00;85.20;;;;;;5119919;27;20087;-50
2023/12/31 11:00:25;;;;;;;4.55;2.15;;;9.00;85.10;;;;;;5117920;27;20047;-48
2023/12/31 11:02:54;;;;;;;6.25;1.83;;;9.00;85.00;;;;;;5120447;27;20024;-50
2023/12/31 11:05:22;;;;;;;7.35;2.30;;;9.00;85.00;;;;;;5120275;27;20034;-49
2023/12/31 11:07:49;;;;;;;5.50;2.38;;;8.90;85.10;;;;;;5123294;27;20043;-50
2023/12/31 11:10:17;;;;;;;3.83;2.65;;;8.90;85.20;;;;;;5115105;27;20020;-48
2023/12/31 11:12:48;;;;;;;5.40;2.13;;;8.90;85.10;;;;;;5114565;27;20027;-48
2023/12/31 11:15:18;;;;;;;5.05;1.90;;;9.00;85.30;;;;;;5111379;27;20011;-49
2023/12/31 11:18:11;;;;;;;4.03;2.05;;;9.00;85.20;;;;;;5103832;27;20034;-49
2023/12/31 11:21:11;;;;;;;4.03;2.00;;;8.90;85.30;;;;;;5102611;27;20043;-53
2023/12/31 11:24:03;;;;;;;4.03;2.15;;;9.00;85.30;;;;;;5101944;27;20020;-54
2023/12/31 11:26:30;;;;;;;5.40;1.90;;;9.00;85.00;;;;;;5107236;27;20028;-51
2023/12/31 11:28:57;;;;;;;4.28;1.88;;;9.10;84.80;;;;;;5100864;27;20055;-51
2023/12/31 11:31:24;;;;;;;3.55;2.15;;;9.10;84.70;;;;;;5103540;27;20114;-51
2023/12/31 11:33:51;;;;;;;7.25;2.15;;;9.00;84.60;;;;;;5106568;27;20035;-50
2023/12/31 11:36:18;;;;;;;3.17;2.10;;;9.00;84.70;;;;;;5109393;27;20376;-50
2023/12/31 11:39:07;;;;;;;4.03;2.35;;;9.00;85.20;;;;;;5092006;28;20031;-47
2023/12/31 11:41:44;;;;;;;5.25;2.15;;;9.00;85.20;;;;;;5117664;27;20506;-47
2023/12/31 11:44:40;;;;;;;3.00;1.88;;;8.90;85.60;;;;;;5085697;27;20130;-50
2023/12/31 11:47:25;;;;;;;4.45;2.50;;;8.90;85.30;;;;;;5096565;27;20031;-50
2023/12/31 11:49:53;;;;;;;4.68;1.85;;;9.00;85.40;;;;;;5107338;27;20110;-48
2023/12/31 11:52:20;;;;;;;3.85;2.00;;;9.00;85.30;;;;;;5106097;27;20441;-47
2023/12/31 11:54:50;;;;;;;3.88;1.88;;;9.00;85.20;;;;;;5105549;27;20024;-48
2023/12/31 11:57:19;;;;;;;4.95;2.10;;;9.00;85.30;;;;;;5101537;27;20045;-49
2023/12/31 11:59:46;;;;;;;3.50;1.83;;;9.00;85.30;;;;;;5109275;27;20352;-50
2023/12/31 12:02:14;;;;;;;4.07;2.10;;;9.00;85.40;;;;;;5102540;27;20031;-52
2023/12/31 12:04:41;;;;;;;3.20;1.95;;;9.00;85.30;;;;;;5123552;27;20034;-50
2023/12/31 12:07:07;;;;;;;3.58;2.17;;;9.10;85.00;;;;;;5109469;27;20048;-50
2023/12/31 12:09:34;;;;;;;3.92;1.92;;;9.10;85.00;;;;;;5104939;27;20024;-49
2023/12/31 12:12:18;;;;;;;6.05;2.90;;;9.10;85.10;;;;;;5106516;27;20310;-50
2023/12/31 12:14:49;;;;;;;4.90;3.00;;;9.10;85.00;;;;;;5120781;27;20456;-49
2023/12/31 12:17:18;;;;;;;5.07;2.70;;;9.10;84.80;;;;;;5101422;27;20550;-47
2023/12/31 12:19:45;;;;;;;3.85;2.17;;;9.30;84.30;;;;;;5087452;28;20031;-48
2023/12/31 12:22:13;;;;;;;4.25;2.35;;;9.30;84.30;;;;;;5105011;27;20411;-52
2023/12/31 12:24:41;;;;;;;3.90;2.10;;;9.30;84.30;;;;;;5102560;27;20031;-47
2023/12/31 12:27:07;;;;;;;3.40;2.03;;;9.40;84.20;;;;;;5101838;27;20024;-48
2023/12/31 12:29:35;;;;;;;5.32;2.80;;;9.40;84.20;;;;;;5103941;27;20105;-49
2023/12/31 12:32:06;;;;;;;5.05;2.33;;;9.40;84.10;;;;;;5117554;27;20070;-49
2023/12/31 12:34:36;;;;;;;4.13;2.53;;;9.40;83.90;;;;;;5103964;27;20043;-49
2023/12/31 12:37:02;;;;;;;4.13;2.22;;;9.50;84.10;;;;;;5105212;27;20475;-48
2023/12/31 12:39:31;;;;;;;5.00;2.38;;;9.50;83.80;;;;;;5102253;27;20602;-49
2023/12/31 12:42:02;;;;;;;4.18;2.35;;;9.60;83.60;;;;;;5119440;27;20140;-49
2023/12/31 12:44:33;;;;;;;5.00;2.55;;;9.50;83.70;;;;;;5100246;27;20116;-48
2023/12/31 12:47:02;;;;;;;4.75;2.53;;;9.50;83.30;;;;;;5103939;27;20058;-50
2023/12/31 12:49:32;;;;;;;3.67;2.15;;;9.50;83.50;;;;;;5104452;27;20024;-48
2023/12/31 12:52:01;;;;;;;5.25;2.50;;;9.50;83.40;;;;;;5106575;27;20032;-54
2023/12/31 12:54:28;;;;;;;4.45;2.58;;;9.50;83.70;;;;;;5099055;27;20099;-50
2023/12/31 12:56:56;;;;;;;4.00;2.35;;;9.50;83.40;;;;;;5103365;27;20031;-51
2023/12/31 12:59:26;;;;;;;4.47;2.17;;;9.50;83.40;;;;;;5098671;27;20059;-52
2023/12/31 13:01:56;;;;;;;4.03;2.28;;;9.50;83.20;;;;;;5102765;27;20028;-49
2023/12/31 13:04:22;;;;;;;4.43;2.70;;;9.50;83.50;;;;;;5105255;27;20043;-52